sensor_id;sensor_type;location;lat;lon;timestamp;pressure;altitude;pressure_sealevel;temperature
12126;BMP180;6126;57.908;16.490;2022-11-03T00:01:50;101309.19;;;7.41
12126;BMP180;6126;57.908;16.490;2022-11-03T00:04:18;101315.28;;;7.40
12126;BMP180;6126;57.908;16.490;2022-11-03T00:06:50;101315.28;;;7.40
12126;BMP180;6126;57.908;16.490;2022-11-03T00:09:19;101320.50;;;7.40
12126;BMP180;6126;57.908;16.490;2022-11-03T00:11:47;101308.34;;;7.39
12126;BMP180;6126;57.908;16.490;2022-11-03T00:14:13;101323.09;;;7.40
12126;BMP180;6126;57.908;16.490;2022-11-03T00:16:40;101309.19;;;7.40
12126;BMP180;6126;57.908;16.490;2022-11-03T00:19:07;101314.38;;;7.41
12126;BMP180;6126;57.908;16.490;2022-11-03T00:21:34;101318.69;;;7.42
12126;BMP180;6126;57.908;16.490;2022-11-03T00:24:01;101327.38;;;7.41
12126;BMP180;6126;57.908;16.490;2022-11-03T00:26:32;101332.59;;;7.41
12126;BMP180;6126;57.908;16.490;2022-11-03T00:29:15;101325.69;;;7.40
12126;BMP180;6126;57.908;16.490;2022-11-03T00:31:43;101327.41;;;7.40
12126;BMP180;6126;57.908;16.490;2022-11-03T00:34:10;101319.66;;;7.38
12126;BMP180;6126;57.908;16.490;2022-11-03T00:36:41;101325.78;;;7.36
12126;BMP180;6126;57.908;16.490;2022-11-03T00:39:08;101343.13;;;7.36
12126;BMP180;6126;57.908;16.490;2022-11-03T00:41:34;101357.00;;;7.35
12126;BMP180;6126;57.908;16.490;2022-11-03T00:44:00;101357.91;;;7.34
12126;BMP180;6126;57.908;16.490;2022-11-03T00:46:26;101360.50;;;7.32
12126;BMP180;6126;57.908;16.490;2022-11-03T00:48:53;101362.31;;;7.30
12126;BMP180;6126;57.908;16.490;2022-11-03T00:51:24;101362.31;;;7.29
12126;BMP180;6126;57.908;16.490;2022-11-03T00:53:59;101365.84;;;7.26
12126;BMP180;6126;57.908;16.490;2022-11-03T00:56:37;101369.34;;;7.24
12126;BMP180;6126;57.908;16.490;2022-11-03T00:59:05;101365.91;;;7.22
12126;BMP180;6126;57.908;16.490;2022-11-03T01:01:38;101363.38;;;7.20
12126;BMP180;6126;57.908;16.490;2022-11-03T01:04:06;101369.47;;;7.18
12126;BMP180;6126;57.908;16.490;2022-11-03T01:06:53;101378.19;;;7.17
12126;BMP180;6126;57.908;16.490;2022-11-03T01:09:37;101376.44;;;7.16
12126;BMP180;6126;57.908;16.490;2022-11-03T01:17:15;101373.94;;;7.11
12126;BMP180;6126;57.908;16.490;2022-11-03T01:19:41;101383.47;;;7.11
12126;BMP180;6126;57.908;16.490;2022-11-03T01:22:07;101382.63;;;7.10
12126;BMP180;6126;57.908;16.490;2022-11-03T01:24:34;101388.66;;;7.11
12126;BMP180;6126;57.908;16.490;2022-11-03T01:27:00;101390.41;;;7.10
12126;BMP180;6126;57.908;16.490;2022-11-03T01:29:26;101386.97;;;7.10
12126;BMP180;6126;57.908;16.490;2022-11-03T01:31:52;101391.31;;;7.09
12126;BMP180;6126;57.908;16.490;2022-11-03T01:34:20;101392.22;;;7.07
12126;BMP180;6126;57.908;16.490;2022-11-03T01:36:46;101388.78;;;7.05
12126;BMP180;6126;57.908;16.490;2022-11-03T01:39:15;101381.00;;;7.04
12126;BMP180;6126;57.908;16.490;2022-11-03T01:41:44;101387.09;;;7.03
12126;BMP180;6126;57.908;16.490;2022-11-03T01:46:47;101390.63;;;7.00
12126;BMP180;6126;57.908;16.490;2022-11-03T01:54:30;101404.56;;;6.96
12126;BMP180;6126;57.908;16.490;2022-11-03T01:56:59;101401.13;;;6.94
12126;BMP180;6126;57.908;16.490;2022-11-03T01:59:27;101403.72;;;6.94
12126;BMP180;6126;57.908;16.490;2022-11-03T02:01:53;101413.28;;;6.94
12126;BMP180;6126;57.908;16.490;2022-11-03T02:04:29;101412.38;;;6.93
12126;BMP180;6126;57.908;16.490;2022-11-03T02:07:33;101414.97;;;6.93
12126;BMP180;6126;57.908;16.490;2022-11-03T02:10:00;101411.53;;;6.93
12126;BMP180;6126;57.908;16.490;2022-11-03T02:12:28;101418.50;;;6.91
12126;BMP180;6126;57.908;16.490;2022-11-03T02:15:04;101420.25;;;6.90
12126;BMP180;6126;57.908;16.490;2022-11-03T02:17:32;101416.84;;;6.88
12126;BMP180;6126;57.908;16.490;2022-11-03T02:20:02;101417.75;;;6.84
12126;BMP180;6126;57.908;16.490;2022-11-03T02:25:44;101416.06;;;6.82
12126;BMP180;6126;57.908;16.490;2022-11-03T02:28:14;101413.50;;;6.80
12126;BMP180;6126;57.908;16.490;2022-11-03T02:36:39;101421.31;;;6.77
12126;BMP180;6126;57.908;16.490;2022-11-03T02:39:15;101408.41;;;6.75
12126;BMP180;6126;57.908;16.490;2022-11-03T02:41:46;101416.19;;;6.75
12126;BMP180;6126;57.908;16.490;2022-11-03T02:44:17;101418.78;;;6.75
12126;BMP180;6126;57.908;16.490;2022-11-03T02:46:47;101422.28;;;6.74
12126;BMP180;6126;57.908;16.490;2022-11-03T02:49:15;101417.94;;;6.73
12126;BMP180;6126;57.908;16.490;2022-11-03T02:51:41;101422.34;;;6.71
12126;BMP180;6126;57.908;16.490;2022-11-03T02:54:24;101422.41;;;6.68
12126;BMP180;6126;57.908;16.490;2022-11-03T02:57:17;101435.38;;;6.68
12126;BMP180;6126;57.908;16.490;2022-11-03T02:59:58;101427.59;;;6.68
12126;BMP180;6126;57.908;16.490;2022-11-03T03:02:40;101432.78;;;6.68
12126;BMP180;6126;57.908;16.490;2022-11-03T03:05:10;101432.78;;;6.68
12126;BMP180;6126;57.908;16.490;2022-11-03T03:07:45;101430.13;;;6.69
12126;BMP180;6126;57.908;16.490;2022-11-03T03:10:17;101440.53;;;6.69
12126;BMP180;6126;57.908;16.490;2022-11-03T03:12:52;101430.19;;;6.68
12126;BMP180;6126;57.908;16.490;2022-11-03T03:18:29;101444.97;;;6.63
12126;BMP180;6126;57.908;16.490;2022-11-03T03:21:10;101429.47;;;6.60
12126;BMP180;6126;57.908;16.490;2022-11-03T03:23:46;101428.56;;;6.61
12126;BMP180;6126;57.908;16.490;2022-11-03T03:26:41;101419.91;;;6.60
12126;BMP180;6126;57.908;16.490;2022-11-03T03:29:13;101438.91;;;6.64
12126;BMP180;6126;57.908;16.490;2022-11-03T03:31:46;101433.69;;;6.65
12126;BMP180;6126;57.908;16.490;2022-11-03T03:34:16;101429.34;;;6.66
12126;BMP180;6126;57.908;16.490;2022-11-03T03:36:47;101434.53;;;6.66
12126;BMP180;6126;57.908;16.490;2022-11-03T03:39:15;101433.63;;;6.68
12126;BMP180;6126;57.908;16.490;2022-11-03T03:41:46;101429.31;;;6.67
12126;BMP180;6126;57.908;16.490;2022-11-03T03:44:14;101428.50;;;6.65
12126;BMP180;6126;57.908;16.490;2022-11-03T03:46:49;101434.59;;;6.63
12126;BMP180;6126;57.908;16.490;2022-11-03T03:49:16;101430.31;;;6.60
12126;BMP180;6126;57.908;16.490;2022-11-03T03:51:43;101441.59;;;6.58
12126;BMP180;6126;57.908;16.490;2022-11-03T03:54:10;101444.19;;;6.56
12126;BMP180;6126;57.908;16.490;2022-11-03T03:56:50;101436.47;;;6.53
12126;BMP180;6126;57.908;16.490;2022-11-03T03:59:18;101432.22;;;6.49
12126;BMP180;6126;57.908;16.490;2022-11-03T04:01:44;101435.72;;;6.45
12126;BMP180;6126;57.908;16.490;2022-11-03T04:04:09;101430.59;;;6.43
12126;BMP180;6126;57.908;16.490;2022-11-03T04:06:35;101432.41;;;6.38
12126;BMP180;6126;57.908;16.490;2022-11-03T04:09:01;101447.97;;;6.36
12126;BMP180;6126;57.908;16.490;2022-11-03T04:11:27;101436.78;;;6.34
12126;BMP180;6126;57.908;16.490;2022-11-03T04:14:11;101429.06;;;6.31
12126;BMP180;6126;57.908;16.490;2022-11-03T04:16:56;101436.84;;;6.28
12126;BMP180;6126;57.908;16.490;2022-11-03T04:19:40;101433.41;;;6.29
12126;BMP180;6126;57.908;16.490;2022-11-03T04:22:31;101433.44;;;6.26
12126;BMP180;6126;57.908;16.490;2022-11-03T04:24:58;101432.63;;;6.23
12126;BMP180;6126;57.908;16.490;2022-11-03T04:27:35;101434.41;;;6.18
12126;BMP180;6126;57.908;16.490;2022-11-03T04:32:41;101435.50;;;6.05
12126;BMP180;6126;57.908;16.490;2022-11-03T04:35:32;101439.03;;;5.97
12126;BMP180;6126;57.908;16.490;2022-11-03T04:38:07;101435.75;;;5.87
12126;BMP180;6126;57.908;16.490;2022-11-03T04:40:52;101441.03;;;5.79
12126;BMP180;6126;57.908;16.490;2022-11-03T04:43:21;101444.66;;;5.64
12126;BMP180;6126;57.908;16.490;2022-11-03T04:45:48;101446.56;;;5.49
12126;BMP180;6126;57.908;16.490;2022-11-03T04:48:20;101437.19;;;5.35
12126;BMP180;6126;57.908;16.490;2022-11-03T04:50:51;101426.19;;;5.20
12126;BMP180;6126;57.908;16.490;2022-11-03T04:53:20;101432.31;;;5.10
12126;BMP180;6126;57.908;16.490;2022-11-03T04:55:49;101432.44;;;4.99
12126;BMP180;6126;57.908;16.490;2022-11-03T05:00:52;101422.25;;;4.82
12126;BMP180;6126;57.908;16.490;2022-11-03T05:03:25;101429.13;;;4.83
12126;BMP180;6126;57.908;16.490;2022-11-03T05:05:52;101435.16;;;4.85
12126;BMP180;6126;57.908;16.490;2022-11-03T05:08:19;101448.09;;;4.86
12126;BMP180;6126;57.908;16.490;2022-11-03T05:10:46;101444.59;;;4.90
12126;BMP180;6126;57.908;16.490;2022-11-03T05:13:23;101442.81;;;4.95
12126;BMP180;6126;57.908;16.490;2022-11-03T05:15:53;101445.44;;;4.92
12126;BMP180;6126;57.908;16.490;2022-11-03T05:18:30;101448.97;;;4.84
12126;BMP180;6126;57.908;16.490;2022-11-03T05:21:01;101456.81;;;4.76
12126;BMP180;6126;57.908;16.490;2022-11-03T05:23:32;101442.13;;;4.77
12126;BMP180;6126;57.908;16.490;2022-11-03T05:26:02;101455.94;;;4.79
12126;BMP180;6126;57.908;16.490;2022-11-03T05:28:36;101456.75;;;4.84
12126;BMP180;6126;57.908;16.490;2022-11-03T05:31:25;101462.69;;;4.93
12126;BMP180;6126;57.908;16.490;2022-11-03T05:33:56;101464.38;;;4.98
12126;BMP180;6126;57.908;16.490;2022-11-03T05:36:25;101458.28;;;5.01
12126;BMP180;6126;57.908;16.490;2022-11-03T05:38:58;101456.53;;;5.06
12126;BMP180;6126;57.908;16.490;2022-11-03T05:41:28;101456.50;;;5.09
12126;BMP180;6126;57.908;16.490;2022-11-03T05:46:51;101466.03;;;5.05
12126;BMP180;6126;57.908;16.490;2022-11-03T05:49:17;101471.22;;;5.05
12126;BMP180;6126;57.908;16.490;2022-11-03T05:51:44;101472.91;;;5.09
12126;BMP180;6126;57.908;16.490;2022-11-03T05:54:26;101473.75;;;5.13
12126;BMP180;6126;57.908;16.490;2022-11-03T05:56:52;101471.97;;;5.16
12126;BMP180;6126;57.908;16.490;2022-11-03T05:59:24;101471.06;;;5.20
12126;BMP180;6126;57.908;16.490;2022-11-03T06:01:52;101469.28;;;5.28
12126;BMP180;6126;57.908;16.490;2022-11-03T06:04:30;101485.59;;;5.34
12126;BMP180;6126;57.908;16.490;2022-11-03T06:07:08;101488.16;;;5.39
12126;BMP180;6126;57.908;16.490;2022-11-03T06:09:36;101487.22;;;5.43
12126;BMP180;6126;57.908;16.490;2022-11-03T06:12:05;101486.34;;;5.47
12126;BMP180;6126;57.908;16.490;2022-11-03T06:14:32;101488.88;;;5.50
12126;BMP180;6126;57.908;16.490;2022-11-03T06:17:23;101499.25;;;5.51
12126;BMP180;6126;57.908;16.490;2022-11-03T06:19:55;101501.81;;;5.54
12126;BMP180;6126;57.908;16.490;2022-11-03T06:22:38;101500.06;;;5.56
12126;BMP180;6126;57.908;16.490;2022-11-03T06:25:35;101497.44;;;5.57
12126;BMP180;6126;57.908;16.490;2022-11-03T06:28:04;101501.72;;;5.61
12126;BMP180;6126;57.908;16.490;2022-11-03T06:30:33;101499.97;;;5.63
12126;BMP180;6126;57.908;16.490;2022-11-03T06:33:13;101497.38;;;5.65
12126;BMP180;6126;57.908;16.490;2022-11-03T06:35:42;101506.84;;;5.66
12126;BMP180;6126;57.908;16.490;2022-11-03T06:38:23;101501.66;;;5.67
12126;BMP180;6126;57.908;16.490;2022-11-03T06:40:51;101500.75;;;5.70
12126;BMP180;6126;57.908;16.490;2022-11-03T06:43:40;101495.56;;;5.71
12126;BMP180;6126;57.908;16.490;2022-11-03T06:46:19;101495.56;;;5.74
12126;BMP180;6126;57.908;16.490;2022-11-03T06:48:46;101503.31;;;5.76
12126;BMP180;6126;57.908;16.490;2022-11-03T06:51:27;101506.75;;;5.78
12126;BMP180;6126;57.908;16.490;2022-11-03T06:53:58;101521.44;;;5.80
12126;BMP180;6126;57.908;16.490;2022-11-03T06:56:28;101527.47;;;5.82
12126;BMP180;6126;57.908;16.490;2022-11-03T06:58:56;101531.75;;;5.83
12126;BMP180;6126;57.908;16.490;2022-11-03T07:01:32;101529.13;;;5.86
12126;BMP180;6126;57.908;16.490;2022-11-03T07:04:20;101518.72;;;5.89
12126;BMP180;6126;57.908;16.490;2022-11-03T07:06:47;101524.75;;;5.91
12126;BMP180;6126;57.908;16.490;2022-11-03T07:09:21;101529.03;;;5.95
12126;BMP180;6126;57.908;16.490;2022-11-03T07:11:54;101531.50;;;6.02
12126;BMP180;6126;57.908;16.490;2022-11-03T07:14:25;101523.69;;;6.07
12126;BMP180;6126;57.908;16.490;2022-11-03T07:16:56;101524.47;;;6.12
12126;BMP180;6126;57.908;16.490;2022-11-03T07:19:28;101517.50;;;6.16
12126;BMP180;6126;57.908;16.490;2022-11-03T07:22:02;101513.09;;;6.21
12126;BMP180;6126;57.908;16.490;2022-11-03T07:24:41;101525.09;;;6.28
12126;BMP180;6126;57.908;16.490;2022-11-03T07:27:30;101515.47;;;6.36
12126;BMP180;6126;57.908;16.490;2022-11-03T07:30:21;101499.84;;;6.42
12126;BMP180;6126;57.908;16.490;2022-11-03T07:32:51;101507.53;;;6.48
12126;BMP180;6126;57.908;16.490;2022-11-03T07:37:50;101513.41;;;6.59
12126;BMP180;6126;57.908;16.490;2022-11-03T07:40:26;101507.31;;;6.63
12126;BMP180;6126;57.908;16.490;2022-11-03T07:42:58;101514.09;;;6.70
12126;BMP180;6126;57.908;16.490;2022-11-03T07:45:37;101508.84;;;6.76
12126;BMP180;6126;57.908;16.490;2022-11-03T07:48:55;101509.53;;;6.85
12126;BMP180;6126;57.908;16.490;2022-11-03T07:51:41;101511.13;;;6.93
12126;BMP180;6126;57.908;16.490;2022-11-03T07:54:15;101510.22;;;6.97
12126;BMP180;6126;57.908;16.490;2022-11-03T07:56:55;101523.13;;;7.02
12126;BMP180;6126;57.908;16.490;2022-11-03T07:59:41;101517.03;;;7.04
12126;BMP180;6126;57.908;16.490;2022-11-03T08:04:51;101511.59;;;7.16
12126;BMP180;6126;57.908;16.490;2022-11-03T08:07:16;101520.19;;;7.22
12126;BMP180;6126;57.908;16.490;2022-11-03T08:09:42;101515.78;;;7.26
12126;BMP180;6126;57.908;16.490;2022-11-03T08:12:08;101509.66;;;7.28
12126;BMP180;6126;57.908;16.490;2022-11-03T08:14:34;101515.72;;;7.30
12126;BMP180;6126;57.908;16.490;2022-11-03T08:17:02;101520.00;;;7.33
12126;BMP180;6126;57.908;16.490;2022-11-03T08:19:28;101519.94;;;7.36
12126;BMP180;6126;57.908;16.490;2022-11-03T08:21:55;101519.03;;;7.38
12126;BMP180;6126;57.908;16.490;2022-11-03T08:24:21;101528.50;;;7.40
12126;BMP180;6126;57.908;16.490;2022-11-03T08:26:47;101518.91;;;7.42
12126;BMP180;6126;57.908;16.490;2022-11-03T08:29:13;101525.03;;;7.41
12126;BMP180;6126;57.908;16.490;2022-11-03T08:31:39;101526.72;;;7.42
12126;BMP180;6126;57.908;16.490;2022-11-03T08:34:05;101526.72;;;7.42
12126;BMP180;6126;57.908;16.490;2022-11-03T08:36:31;101528.41;;;7.45
12126;BMP180;6126;57.908;16.490;2022-11-03T08:38:56;101523.19;;;7.46
12126;BMP180;6126;57.908;16.490;2022-11-03T08:41:22;101525.75;;;7.48
12126;BMP180;6126;57.908;16.490;2022-11-03T08:43:48;101519.63;;;7.50
12126;BMP180;6126;57.908;16.490;2022-11-03T08:46:14;101517.88;;;7.52
12126;BMP180;6126;57.908;16.490;2022-11-03T08:48:40;101519.63;;;7.52
12126;BMP180;6126;57.908;16.490;2022-11-03T08:51:06;101518.78;;;7.50
12126;BMP180;6126;57.908;16.490;2022-11-03T08:53:34;101513.59;;;7.50
12126;BMP180;6126;57.908;16.490;2022-11-03T08:56:00;101522.25;;;7.50
12126;BMP180;6126;57.908;16.490;2022-11-03T08:58:26;101520.53;;;7.51
12126;BMP180;6126;57.908;16.490;2022-11-03T09:00:52;101509.28;;;7.47
12126;BMP180;6126;57.908;16.490;2022-11-03T09:03:18;101502.38;;;7.46
12126;BMP180;6126;57.908;16.490;2022-11-03T09:05:44;101506.63;;;7.50
12126;BMP180;6126;57.908;16.490;2022-11-03T09:08:10;101499.72;;;7.51
12126;BMP180;6126;57.908;16.490;2022-11-03T09:10:35;101499.66;;;7.52
12126;BMP180;6126;57.908;16.490;2022-11-03T09:13:01;101499.66;;;7.54
12126;BMP180;6126;57.908;16.490;2022-11-03T09:15:28;101497.84;;;7.57
12126;BMP180;6126;57.908;16.490;2022-11-03T09:17:53;101492.56;;;7.60
12126;BMP180;6126;57.908;16.490;2022-11-03T09:20:19;101506.44;;;7.61
12126;BMP180;6126;57.908;16.490;2022-11-03T09:22:45;101501.19;;;7.64
12126;BMP180;6126;57.908;16.490;2022-11-03T09:25:11;101488.19;;;7.64
12126;BMP180;6126;57.908;16.490;2022-11-03T09:27:37;101492.50;;;7.65
12126;BMP180;6126;57.908;16.490;2022-11-03T09:30:05;101488.97;;;7.67
12126;BMP180;6126;57.908;16.490;2022-11-03T09:32:32;101489.81;;;7.69
12126;BMP180;6126;57.908;16.490;2022-11-03T09:34:59;101492.34;;;7.72
12126;BMP180;6126;57.908;16.490;2022-11-03T09:37:24;101490.59;;;7.72
12126;BMP180;6126;57.908;16.490;2022-11-03T09:39:50;101494.88;;;7.75
12126;BMP180;6126;57.908;16.490;2022-11-03T09:42:17;101490.47;;;7.78
12126;BMP180;6126;57.908;16.490;2022-11-03T09:44:44;101502.56;;;7.81
12126;BMP180;6126;57.908;16.490;2022-11-03T09:47:27;101500.75;;;7.84
12126;BMP180;6126;57.908;16.490;2022-11-03T09:49:55;101499.91;;;7.84
12126;BMP180;6126;57.908;16.490;2022-11-03T09:52:23;101494.69;;;7.84
12126;BMP180;6126;57.908;16.490;2022-11-03T09:54:52;101505.03;;;7.87
12126;BMP180;6126;57.908;16.490;2022-11-03T09:57:21;101517.13;;;7.91
12126;BMP180;6126;57.908;16.490;2022-11-03T09:59:49;101514.44;;;7.95
12126;BMP180;6126;57.908;16.490;2022-11-03T10:02:28;101523.03;;;7.98
12126;BMP180;6126;57.908;16.490;2022-11-03T10:05:00;101522.13;;;7.99
12126;BMP180;6126;57.908;16.490;2022-11-03T10:07:29;101504.81;;;7.98
12126;BMP180;6126;57.908;16.490;2022-11-03T10:09:58;101503.88;;;8.01
12126;BMP180;6126;57.908;16.490;2022-11-03T10:12:34;101494.25;;;8.04
12126;BMP180;6126;57.908;16.490;2022-11-03T10:15:01;101479.47;;;8.06
12126;BMP180;6126;57.908;16.490;2022-11-03T10:17:29;101493.31;;;8.10
12126;BMP180;6126;57.908;16.490;2022-11-03T10:19:57;101494.13;;;8.13
12126;BMP180;6126;57.908;16.490;2022-11-03T10:22:23;101485.34;;;8.17
12126;BMP180;6126;57.908;16.490;2022-11-03T10:30:55;101478.13;;;8.28
12126;BMP180;6126;57.908;16.490;2022-11-03T10:36:21;101479.59;;;8.41
12126;BMP180;6126;57.908;16.490;2022-11-03T10:38:47;101473.38;;;8.46
12126;BMP180;6126;57.908;16.490;2022-11-03T10:41:25;101477.53;;;8.55
12126;BMP180;6126;57.908;16.490;2022-11-03T10:46:37;101476.47;;;8.61
12126;BMP180;6126;57.908;16.490;2022-11-03T10:49:14;101470.31;;;8.65
12126;BMP180;6126;57.908;16.490;2022-11-03T10:51:48;101474.59;;;8.68
12126;BMP180;6126;57.908;16.490;2022-11-03T10:54:16;101480.63;;;8.70
12126;BMP180;6126;57.908;16.490;2022-11-03T10:56:45;101468.31;;;8.76
12126;BMP180;6126;57.908;16.490;2022-11-03T10:59:30;101461.19;;;8.83
12126;BMP180;6126;57.908;16.490;2022-11-03T11:01:58;101474.00;;;8.92
12126;BMP180;6126;57.908;16.490;2022-11-03T11:04:24;101465.94;;;9.02
12126;BMP180;6126;57.908;16.490;2022-11-03T11:06:50;101458.78;;;9.10
12126;BMP180;6126;57.908;16.490;2022-11-03T11:09:23;101470.03;;;9.12
12126;BMP180;6126;57.908;16.490;2022-11-03T11:12:16;101478.72;;;9.11
12126;BMP180;6126;57.908;16.490;2022-11-03T11:14:58;101473.56;;;9.09
12126;BMP180;6126;57.908;16.490;2022-11-03T11:20:34;101472.34;;;9.22
12126;BMP180;6126;57.908;16.490;2022-11-03T11:31:37;101427.06;;;9.24
12126;BMP180;6126;57.908;16.490;2022-11-03T11:36:40;101431.03;;;9.37
12126;BMP180;6126;57.908;16.490;2022-11-03T11:53:00;101392.50;;;9.77
12126;BMP180;6126;57.908;16.490;2022-11-03T11:55:36;101389.00;;;9.78
12126;BMP180;6126;57.908;16.490;2022-11-03T11:58:13;101395.13;;;9.77
12126;BMP180;6126;57.908;16.490;2022-11-03T12:01:04;101378.56;;;9.78
12126;BMP180;6126;57.908;16.490;2022-11-03T12:03:36;101373.19;;;9.82
12126;BMP180;6126;57.908;16.490;2022-11-03T12:06:04;101372.16;;;9.87
12126;BMP180;6126;57.908;16.490;2022-11-03T12:08:30;101356.47;;;9.89
12126;BMP180;6126;57.908;16.490;2022-11-03T12:11:03;101367.59;;;9.95
12126;BMP180;6126;57.908;16.490;2022-11-03T12:13:48;101357.81;;;10.02
12126;BMP180;6126;57.908;16.490;2022-11-03T12:16:37;101359.53;;;10.03
12126;BMP180;6126;57.908;16.490;2022-11-03T12:22:37;101361.13;;;10.07
12126;BMP180;6126;57.908;16.490;2022-11-03T12:25:05;101357.78;;;10.03
12126;BMP180;6126;57.908;16.490;2022-11-03T12:27:51;101357.00;;;10.00
12126;BMP180;6126;57.908;16.490;2022-11-03T12:30:18;101353.53;;;9.99
12126;BMP180;6126;57.908;16.490;2022-11-03T12:32:45;101344.91;;;9.97
12126;BMP180;6126;57.908;16.490;2022-11-03T12:35:12;101348.28;;;10.01
12126;BMP180;6126;57.908;16.490;2022-11-03T12:37:38;101341.09;;;10.07
12126;BMP180;6126;57.908;16.490;2022-11-03T12:40:06;101335.69;;;10.13
12126;BMP180;6126;57.908;16.490;2022-11-03T12:42:32;101334.75;;;10.16
12126;BMP180;6126;57.908;16.490;2022-11-03T12:44:58;101336.47;;;10.15
12126;BMP180;6126;57.908;16.490;2022-11-03T12:47:24;101340.94;;;10.12
12126;BMP180;6126;57.908;16.490;2022-11-03T12:49:50;101344.63;;;10.06
12126;BMP180;6126;57.908;16.490;2022-11-03T12:52:15;101332.53;;;10.02
12126;BMP180;6126;57.908;16.490;2022-11-03T12:54:41;101327.41;;;9.99
12126;BMP180;6126;57.908;16.490;2022-11-03T12:57:07;101330.09;;;9.98
12126;BMP180;6126;57.908;16.490;2022-11-03T12:59:33;101328.25;;;10.00
12126;BMP180;6126;57.908;16.490;2022-11-03T13:01:59;101332.50;;;10.04
12126;BMP180;6126;57.908;16.490;2022-11-03T13:04:25;101335.94;;;10.06
12126;BMP180;6126;57.908;16.490;2022-11-03T13:06:51;101329.75;;;10.08
12126;BMP180;6126;57.908;16.490;2022-11-03T13:09:16;101326.34;;;10.06
12126;BMP180;6126;57.908;16.490;2022-11-03T13:11:42;101322.97;;;10.03
12126;BMP180;6126;57.908;16.490;2022-11-03T13:14:26;101328.38;;;9.97
12126;BMP180;6126;57.908;16.490;2022-11-03T13:16:52;101332.84;;;9.93
12126;BMP180;6126;57.908;16.490;2022-11-03T13:19:18;101330.25;;;9.92
12126;BMP180;6126;57.908;16.490;2022-11-03T13:21:44;101330.31;;;9.90
12126;BMP180;6126;57.908;16.490;2022-11-03T13:24:10;101327.72;;;9.90
12126;BMP180;6126;57.908;16.490;2022-11-03T13:26:35;101329.50;;;9.88
12126;BMP180;6126;57.908;16.490;2022-11-03T13:29:01;101314.72;;;9.87
12126;BMP180;6126;57.908;16.490;2022-11-03T13:31:27;101313.00;;;9.86
12126;BMP180;6126;57.908;16.490;2022-11-03T13:33:53;101315.59;;;9.86
12126;BMP180;6126;57.908;16.490;2022-11-03T13:36:19;101311.31;;;9.85
12126;BMP180;6126;57.908;16.490;2022-11-03T13:38:44;101313.06;;;9.85
12126;BMP180;6126;57.908;16.490;2022-11-03T13:41:10;101319.13;;;9.85
12126;BMP180;6126;57.908;16.490;2022-11-03T13:43:36;101321.84;;;9.83
12126;BMP180;6126;57.908;16.490;2022-11-03T13:46:02;101325.31;;;9.83
12126;BMP180;6126;57.908;16.490;2022-11-03T13:48:29;101317.50;;;9.82
12126;BMP180;6126;57.908;16.490;2022-11-03T13:50:55;101309.72;;;9.80
12126;BMP180;6126;57.908;16.490;2022-11-03T13:53:22;101313.25;;;9.79
12126;BMP180;6126;57.908;16.490;2022-11-03T13:55:48;101310.69;;;9.78
12126;BMP180;6126;57.908;16.490;2022-11-03T13:58:14;101298.56;;;9.77
12126;BMP180;6126;57.908;16.490;2022-11-03T14:00:39;101296.81;;;9.76
12126;BMP180;6126;57.908;16.490;2022-11-03T14:03:05;101296.00;;;9.74
12126;BMP180;6126;57.908;16.490;2022-11-03T14:05:31;101293.41;;;9.74
12126;BMP180;6126;57.908;16.490;2022-11-03T14:07:57;101294.31;;;9.73
12126;BMP180;6126;57.908;16.490;2022-11-03T14:10:23;101293.47;;;9.72
12126;BMP180;6126;57.908;16.490;2022-11-03T14:12:48;101279.50;;;9.73
12126;BMP180;6126;57.908;16.490;2022-11-03T14:15:14;101298.56;;;9.77
12126;BMP180;6126;57.908;16.490;2022-11-03T14:17:40;101283.63;;;9.80
12126;BMP180;6126;57.908;16.490;2022-11-03T14:20:10;101283.50;;;9.84
12126;BMP180;6126;57.908;16.490;2022-11-03T14:22:36;101287.81;;;9.85
12126;BMP180;6126;57.908;16.490;2022-11-03T14:25:03;101284.28;;;9.86
12126;BMP180;6126;57.908;16.490;2022-11-03T14:27:30;101296.44;;;9.87
12126;BMP180;6126;57.908;16.490;2022-11-03T14:29:55;101279.13;;;9.85
12126;BMP180;6126;57.908;16.490;2022-11-03T14:32:21;101275.66;;;9.84
12126;BMP180;6126;57.908;16.490;2022-11-03T14:34:47;101276.66;;;9.81
12126;BMP180;6126;57.908;16.490;2022-11-03T14:37:14;101277.66;;;9.77
12126;BMP180;6126;57.908;16.490;2022-11-03T14:39:40;101276.78;;;9.76
12126;BMP180;6126;57.908;16.490;2022-11-03T14:42:10;101269.91;;;9.74
12126;BMP180;6126;57.908;16.490;2022-11-03T14:44:42;101269.97;;;9.72
12126;BMP180;6126;57.908;16.490;2022-11-03T14:47:17;101269.13;;;9.72
12126;BMP180;6126;57.908;16.490;2022-11-03T14:49:44;101269.16;;;9.70
12126;BMP180;6126;57.908;16.490;2022-11-03T14:52:10;101266.63;;;9.69
12126;BMP180;6126;57.908;16.490;2022-11-03T14:54:36;101266.66;;;9.67
12126;BMP180;6126;57.908;16.490;2022-11-03T14:57:03;101264.94;;;9.66
12126;BMP180;6126;57.908;16.490;2022-11-03T14:59:29;101262.38;;;9.65
12126;BMP180;6126;57.908;16.490;2022-11-03T15:01:56;101265.00;;;9.63
12126;BMP180;6126;57.908;16.490;2022-11-03T15:04:22;101258.94;;;9.63
12126;BMP180;6126;57.908;16.490;2022-11-03T15:06:49;101256.41;;;9.61
12126;BMP180;6126;57.908;16.490;2022-11-03T15:09:14;101263.41;;;9.59
12126;BMP180;6126;57.908;16.490;2022-11-03T15:11:42;101260.84;;;9.58
12126;BMP180;6126;57.908;16.490;2022-11-03T15:14:08;101255.63;;;9.58
12126;BMP180;6126;57.908;16.490;2022-11-03T15:16:34;101252.16;;;9.57
12126;BMP180;6126;57.908;16.490;2022-11-03T15:19:02;101250.50;;;9.55
12126;BMP180;6126;57.908;16.490;2022-11-03T15:21:29;101242.75;;;9.53
12126;BMP180;6126;57.908;16.490;2022-11-03T15:23:55;101237.56;;;9.52
12126;BMP180;6126;57.908;16.490;2022-11-03T15:26:21;101236.63;;;9.53
12126;BMP180;6126;57.908;16.490;2022-11-03T15:28:47;101232.31;;;9.53
12126;BMP180;6126;57.908;16.490;2022-11-03T15:31:13;101232.31;;;9.53
12126;BMP180;6126;57.908;16.490;2022-11-03T15:33:39;101231.44;;;9.53
12126;BMP180;6126;57.908;16.490;2022-11-03T15:36:05;101236.63;;;9.53
12126;BMP180;6126;57.908;16.490;2022-11-03T15:38:32;101227.13;;;9.52
12126;BMP180;6126;57.908;16.490;2022-11-03T15:40:58;101225.31;;;9.54
12126;BMP180;6126;57.908;16.490;2022-11-03T15:43:45;101221.81;;;9.55
12126;BMP180;6126;57.908;16.490;2022-11-03T15:46:12;101216.59;;;9.55
12126;BMP180;6126;57.908;16.490;2022-11-03T15:48:38;101219.19;;;9.55
12126;BMP180;6126;57.908;16.490;2022-11-03T15:51:05;101213.13;;;9.54